LFRZ/SNR METAR and TAF weather

Enter ICAO airport designator
Station Type Date Time Source
LFRZ METAR 2020/10/20 17:30 UTC NOAA

LFRZ 201730Z AUTO 16017KT CAVOK 17/14 Q1000 TEMPO 2000 RA BKN006


Station Type Date Time Source
LFRZ Decoded METAR 2020/10/20 17:30 UTC NOAA

St-Nazaire, France (LFRZ) 47-19N 002-10W 4M
Oct 20, 2020 - 01:30 PM EDT / 2020.10.20 1730 UTC
Wind: from the SSE (160 degrees) at 20 MPH (17 KT):0
Visibility: greater than 7 mile(s):0
Temperature: 62 F (17 C)
Dew Point: 57 F (14 C)
Relative Humidity: 82%
Pressure (altimeter): 29.53 in. Hg (1000 hPa)
ob: LFRZ 201730Z AUTO 16017KT CAVOK 17/14 Q1000 TEMPO 2000 RA BKN006
cycle: 17

Station Type Date Time Source
LFRZ TAF 2020/10/20 18:42 UTC NOAA

TAF LFRZ 201700Z 2018/2118 17015G25KT 9999 -RA BKN020
TEMPO 2019/2109 3000 RA BKN006
BECMG 2101/2103 17020G35KT
TEMPO 2104/2106 19030G48KT
BECMG 2106/2108 22014KT
BECMG 2108/2110 NSW
TEMPO 2112/2115 22015G25KT 4000 SHRA SCT020TCU

Example: see airport list